Time;durP1;ratioP1;P1;durP2;ratioP2;P2;SDS_P1;SDS_P2;PMS_P1;PMS_P2;Temp;Humidity;BMP_temperature;BMP_pressure;BME280_temperature;BME280_humidity;BME280_pressure;Samples;Min_cycle;Max_cycle;Signal;HPM_P1;HPM_P2
2023/05/23 00:00:26;;;;;;;24.52;16.95;;;13.80;99.90;;;;;;5070414;28;20039;-65
2023/05/23 00:02:52;;;;;;;20.40;15.50;;;13.80;99.90;;;;;;5069042;28;20385;-63
2023/05/23 00:05:17;;;;;;;23.63;15.52;;;13.80;99.90;;;;;;5070566;28;20040;-63
2023/05/23 00:07:46;;;;;;;18.98;14.48;;;13.80;99.90;;;;;;5070136;28;20036;-61
2023/05/23 00:10:13;;;;;;;21.02;13.55;;;13.80;99.90;;;;;;5068819;28;20115;-61
2023/05/23 00:12:41;;;;;;;22.73;14.35;;;13.80;99.90;;;;;;5068583;28;20036;-61
2023/05/23 00:15:08;;;;;;;24.52;14.73;;;13.80;99.90;;;;;;5068935;28;20083;-62
2023/05/23 00:17:38;;;;;;;22.45;14.10;;;13.70;99.90;;;;;;5069557;28;20520;-64
2023/05/23 00:20:14;;;;;;;25.50;14.38;;;13.70;99.90;;;;;;5068723;28;20116;-62
2023/05/23 00:22:41;;;;;;;27.50;14.38;;;13.70;99.90;;;;;;5069802;28;20082;-63
2023/05/23 00:25:10;;;;;;;28.58;15.15;;;13.60;99.90;;;;;;5069870;28;20119;-63
2023/05/23 00:27:36;;;;;;;27.13;14.85;;;13.60;99.90;;;;;;5070110;28;20150;-61
2023/05/23 00:30:02;;;;;;;28.40;15.68;;;13.50;99.90;;;;;;5068911;28;20063;-64
2023/05/23 00:32:27;;;;;;;30.25;16.33;;;13.50;99.90;;;;;;5068608;28;20133;-62
2023/05/23 00:34:54;;;;;;;33.97;16.65;;;13.50;99.90;;;;;;5068326;28;20119;-63
2023/05/23 00:37:24;;;;;;;24.23;15.13;;;13.40;99.90;;;;;;5068375;28;20059;-62
2023/05/23 00:39:49;;;;;;;33.38;16.65;;;13.40;99.90;;;;;;5068329;28;20076;-62
2023/05/23 00:42:15;;;;;;;26.00;15.35;;;13.30;99.90;;;;;;5068502;28;20063;-62
2023/05/23 00:44:40;;;;;;;29.48;15.75;;;13.30;99.90;;;;;;5068426;28;20036;-63
2023/05/23 00:47:07;;;;;;;28.27;15.77;;;13.30;99.90;;;;;;5069628;28;20040;-59
2023/05/23 00:49:34;;;;;;;29.25;15.35;;;13.30;99.90;;;;;;5068509;28;20051;-64
2023/05/23 00:51:59;;;;;;;28.67;14.95;;;13.30;99.90;;;;;;5068185;28;20082;-64
2023/05/23 00:54:28;;;;;;;26.70;15.43;;;13.30;99.90;;;;;;5068158;28;20438;-63
2023/05/23 00:56:54;;;;;;;29.20;15.40;;;13.30;99.90;;;;;;5068042;28;20040;-64
2023/05/23 00:59:22;;;;;;;27.02;14.20;;;13.30;99.90;;;;;;5069789;28;20123;-62
2023/05/23 01:01:51;;;;;;;26.00;13.63;;;13.30;99.90;;;;;;5069483;28;20146;-61
2023/05/23 01:04:18;;;;;;;26.52;14.18;;;13.30;99.90;;;;;;5068210;28;20112;-62
2023/05/23 01:06:45;;;;;;;24.42;14.18;;;13.30;99.90;;;;;;5068227;28;20044;-62
2023/05/23 01:09:22;;;;;;;22.10;12.40;;;13.20;99.90;;;;;;5068209;28;20040;-63
2023/05/23 01:12:10;;;;;;;21.05;12.60;;;13.20;99.90;;;;;;5069501;28;20079;-64
2023/05/23 01:14:49;;;;;;;23.15;11.52;;;13.20;99.90;;;;;;5069390;28;20036;-62
2023/05/23 01:17:23;;;;;;;17.98;10.98;;;13.20;99.90;;;;;;5068904;28;20047;-60
2023/05/23 01:20:00;;;;;;;18.77;11.13;;;13.20;99.90;;;;;;5069427;28;20032;-61
2023/05/23 01:22:47;;;;;;;17.45;11.55;;;13.20;99.90;;;;;;5067959;28;22359;-62
2023/05/23 01:25:31;;;;;;;23.13;12.75;;;13.20;99.90;;;;;;5067857;28;20115;-61
2023/05/23 01:28:02;;;;;;;25.25;13.52;;;13.20;99.90;;;;;;5069391;28;20032;-63
2023/05/23 01:30:31;;;;;;;23.42;14.07;;;13.20;99.90;;;;;;5069354;28;20107;-63
2023/05/23 01:32:59;;;;;;;25.17;15.10;;;13.20;99.90;;;;;;5069401;28;20037;-62
2023/05/23 01:35:26;;;;;;;23.13;13.65;;;13.20;99.90;;;;;;5067608;28;20123;-63
2023/05/23 01:37:53;;;;;;;23.42;12.85;;;13.10;99.90;;;;;;5069065;28;20040;-62
2023/05/23 01:40:20;;;;;;;19.63;11.82;;;13.10;99.90;;;;;;5069045;28;20483;-62
2023/05/23 01:42:46;;;;;;;24.63;12.00;;;13.10;99.90;;;;;;5073539;28;20462;-61
2023/05/23 01:45:12;;;;;;;23.27;11.68;;;13.20;99.90;;;;;;5072011;28;20387;-63
2023/05/23 01:47:40;;;;;;;23.05;12.52;;;13.20;99.90;;;;;;5071432;28;20033;-63
2023/05/23 01:50:06;;;;;;;21.85;11.60;;;13.10;99.90;;;;;;5073077;28;20032;-63
2023/05/23 01:52:33;;;;;;;21.17;10.93;;;13.10;99.90;;;;;;5071450;28;20479;-63
2023/05/23 01:54:59;;;;;;;24.08;11.52;;;13.10;99.90;;;;;;5071601;28;20033;-64
2023/05/23 01:57:29;;;;;;;20.83;10.70;;;13.10;99.90;;;;;;5072416;28;20497;-63
2023/05/23 01:59:55;;;;;;;24.42;11.23;;;13.10;99.90;;;;;;5072732;28;20526;-63
2023/05/23 02:02:21;;;;;;;23.50;11.70;;;13.10;99.90;;;;;;5072951;28;20119;-63
2023/05/23 02:04:48;;;;;;;22.92;11.00;;;13.00;99.90;;;;;;5071103;28;20052;-62
2023/05/23 02:07:14;;;;;;;19.95;10.52;;;13.00;99.90;;;;;;5072328;28;20033;-64
2023/05/23 02:09:39;;;;;;;22.02;10.60;;;12.90;99.90;;;;;;5071027;28;20403;-65
2023/05/23 02:12:05;;;;;;;27.10;11.45;;;12.90;99.90;;;;;;5072841;28;20450;-62
2023/05/23 02:14:31;;;;;;;22.85;10.60;;;12.90;99.90;;;;;;5073010;28;20132;-64
2023/05/23 02:16:56;;;;;;;21.50;10.40;;;12.90;99.90;;;;;;5071179;28;20044;-62
2023/05/23 02:19:22;;;;;;;18.83;11.07;;;12.80;99.90;;;;;;5071546;28;20052;-62
2023/05/23 02:21:48;;;;;;;20.83;10.25;;;12.80;99.90;;;;;;5070782;28;20044;-67
2023/05/23 02:24:13;;;;;;;21.00;10.50;;;12.80;99.90;;;;;;5071282;28;20036;-60
2023/05/23 02:26:40;;;;;;;19.38;10.90;;;12.80;99.90;;;;;;5072207;28;20039;-62
2023/05/23 02:29:06;;;;;;;19.73;9.90;;;12.80;99.90;;;;;;5072342;28;20051;-64
2023/05/23 02:31:31;;;;;;;24.02;11.20;;;12.80;99.90;;;;;;5052902;28;20469;-61
2023/05/23 02:33:57;;;;;;;21.80;11.38;;;12.70;99.90;;;;;;5070554;28;20047;-64
2023/05/23 02:36:23;;;;;;;20.63;10.05;;;12.70;99.90;;;;;;5071943;28;20135;-63
2023/05/23 02:38:48;;;;;;;18.88;10.15;;;12.70;99.90;;;;;;5070489;28;20048;-62
2023/05/23 02:41:14;;;;;;;23.42;11.02;;;12.70;99.90;;;;;;5072246;28;20029;-63
2023/05/23 02:43:39;;;;;;;23.98;10.63;;;12.70;99.90;;;;;;5070896;28;20051;-62
2023/05/23 02:46:05;;;;;;;23.00;11.30;;;12.70;99.90;;;;;;5070524;28;20072;-63
2023/05/23 02:48:31;;;;;;;21.40;10.63;;;12.70;99.90;;;;;;5071855;28;20044;-63
2023/05/23 02:50:56;;;;;;;19.48;10.02;;;12.60;99.90;;;;;;5071664;28;20090;-64
2023/05/23 02:53:22;;;;;;;23.55;10.30;;;12.60;99.90;;;;;;5069573;28;20059;-62
2023/05/23 02:55:48;;;;;;;24.27;10.63;;;12.60;99.90;;;;;;5071726;28;20377;-64
2023/05/23 02:58:13;;;;;;;22.48;10.25;;;12.60;99.90;;;;;;5070168;28;20483;-63
2023/05/23 03:00:39;;;;;;;24.60;10.55;;;12.60;99.90;;;;;;5054144;28;20044;-63
2023/05/23 03:03:05;;;;;;;19.98;9.45;;;12.60;99.90;;;;;;5070684;28;20119;-62
2023/05/23 03:05:30;;;;;;;20.83;9.02;;;12.60;99.90;;;;;;5069433;28;20403;-63
2023/05/23 03:07:56;;;;;;;24.40;9.15;;;12.60;99.90;;;;;;5071578;28;20452;-65
2023/05/23 03:10:22;;;;;;;21.15;8.88;;;12.60;99.90;;;;;;5070316;28;20044;-65
2023/05/23 03:12:47;;;;;;;22.02;8.88;;;12.60;99.90;;;;;;5071489;28;20077;-63
2023/05/23 03:15:13;;;;;;;22.83;7.82;;;12.60;99.90;;;;;;5071051;28;20028;-62
2023/05/23 03:17:39;;;;;;;21.67;9.30;;;12.50;99.90;;;;;;5071451;28;20036;-64
2023/05/23 03:20:08;;;;;;;17.75;7.57;;;12.60;99.90;;;;;;5070872;28;20457;-63
2023/05/23 03:22:34;;;;;;;18.63;8.60;;;12.50;99.90;;;;;;5071111;28;20518;-63
2023/05/23 03:25:00;;;;;;;21.63;7.93;;;12.50;99.90;;;;;;5071229;28;20518;-64
2023/05/23 03:27:25;;;;;;;17.63;7.63;;;12.60;99.90;;;;;;5069746;28;20040;-63
2023/05/23 03:29:51;;;;;;;18.48;8.80;;;12.50;99.90;;;;;;5071167;28;20037;-61
2023/05/23 03:32:17;;;;;;;19.83;7.75;;;12.50;99.90;;;;;;5070863;28;20036;-63
2023/05/23 03:34:42;;;;;;;18.65;8.05;;;12.50;99.90;;;;;;5069447;28;20059;-63
2023/05/23 03:37:08;;;;;;;19.77;8.15;;;12.50;99.90;;;;;;5069432;28;20110;-63
2023/05/23 03:39:34;;;;;;;19.38;8.70;;;12.50;99.90;;;;;;5070654;28;20037;-63
2023/05/23 03:41:59;;;;;;;18.42;7.78;;;12.40;99.90;;;;;;5069565;28;20067;-63
2023/05/23 03:44:25;;;;;;;19.10;8.48;;;12.40;99.90;;;;;;5069472;28;20045;-61
2023/05/23 03:46:51;;;;;;;21.60;8.75;;;12.40;99.90;;;;;;5069488;28;20037;-60
2023/05/23 03:49:17;;;;;;;22.42;8.07;;;12.40;99.90;;;;;;5069345;28;20071;-60
2023/05/23 03:51:42;;;;;;;19.98;8.63;;;12.40;99.90;;;;;;5068090;28;20048;-65
2023/05/23 03:54:08;;;;;;;17.85;8.50;;;12.40;99.90;;;;;;5069435;28;20044;-61
2023/05/23 03:56:33;;;;;;;18.05;8.15;;;12.40;99.90;;;;;;5070446;28;20032;-62
2023/05/23 03:59:00;;;;;;;25.08;8.18;;;12.40;99.90;;;;;;5071097;28;20032;-62
2023/05/23 04:01:26;;;;;;;18.38;7.53;;;12.40;99.90;;;;;;5070453;28;20483;-62
2023/05/23 04:03:52;;;;;;;19.58;7.25;;;12.40;99.90;;;;;;5068750;28;20071;-62
2023/05/23 04:06:19;;;;;;;18.92;7.55;;;12.40;99.90;;;;;;5070711;28;20451;-62
2023/05/23 04:08:44;;;;;;;19.25;7.10;;;12.30;99.90;;;;;;5068793;28;20052;-63
2023/05/23 04:11:10;;;;;;;20.48;7.50;;;12.30;99.90;;;;;;5070418;28;20036;-62
2023/05/23 04:13:36;;;;;;;18.33;6.90;;;12.30;99.90;;;;;;5068786;28;20045;-63
2023/05/23 04:16:04;;;;;;;21.63;7.05;;;12.30;99.90;;;;;;5069003;28;20044;-63
2023/05/23 04:18:32;;;;;;;17.60;6.22;;;12.30;99.90;;;;;;5070352;28;20099;-63
2023/05/23 04:20:58;;;;;;;15.23;6.20;;;12.30;99.90;;;;;;5070453;28;20033;-63
2023/05/23 04:23:24;;;;;;;17.50;5.40;;;12.20;99.90;;;;;;5070406;28;20134;-61
2023/05/23 04:25:50;;;;;;;15.48;5.55;;;12.20;99.90;;;;;;5068443;28;20040;-63
2023/05/23 04:28:16;;;;;;;12.93;5.18;;;12.20;99.90;;;;;;5070153;28;20118;-61
2023/05/23 04:30:42;;;;;;;13.85;5.15;;;12.20;99.90;;;;;;5069650;28;20089;-61
2023/05/23 04:33:09;;;;;;;14.50;5.30;;;12.10;99.90;;;;;;5069814;28;20068;-64
2023/05/23 04:35:37;;;;;;;14.05;5.30;;;12.10;99.90;;;;;;5068497;28;20048;-61
2023/05/23 04:38:03;;;;;;;19.08;5.22;;;12.10;99.90;;;;;;5068145;28;20053;-63
2023/05/23 04:40:30;;;;;;;14.02;5.40;;;12.00;99.90;;;;;;5068832;28;20503;-63
2023/05/23 04:42:56;;;;;;;14.25;5.07;;;12.00;99.90;;;;;;5068232;28;20122;-62
2023/05/23 04:45:22;;;;;;;12.07;5.25;;;12.00;99.90;;;;;;5069936;28;20515;-61
2023/05/23 04:47:47;;;;;;;14.27;5.32;;;12.00;99.90;;;;;;5068357;28;20044;-61
2023/05/23 04:50:13;;;;;;;12.80;5.25;;;11.90;99.90;;;;;;5067393;28;20032;-63
2023/05/23 04:52:39;;;;;;;15.07;5.10;;;12.00;99.90;;;;;;5051870;28;20042;-61
2023/05/23 04:55:07;;;;;;;12.93;5.78;;;12.00;99.90;;;;;;5069498;28;20033;-62
2023/05/23 04:57:36;;;;;;;15.27;5.43;;;12.00;99.90;;;;;;5068246;28;20055;-63
2023/05/23 05:00:09;;;;;;;12.13;5.32;;;11.90;99.90;;;;;;5068513;28;20486;-62
2023/05/23 05:02:35;;;;;;;;;;;11.90;99.90;;;;;;5070191;28;20497;-63
2023/05/23 05:05:02;;;;;;;16.30;6.10;;;11.90;99.90;;;;;;5068473;28;20330;-61
2023/05/23 05:07:28;;;;;;;19.17;6.07;;;11.90;99.90;;;;;;5069698;28;20044;-64
2023/05/23 05:09:54;;;;;;;16.15;6.15;;;11.80;99.90;;;;;;5067860;28;20045;-66
2023/05/23 05:12:20;;;;;;;20.35;6.47;;;11.80;99.90;;;;;;5067375;28;20510;-63
2023/05/23 05:14:45;;;;;;;15.40;5.72;;;11.80;99.90;;;;;;5068613;28;20052;-64
2023/05/23 05:17:11;;;;;;;13.10;5.25;;;11.80;99.90;;;;;;5072324;28;20086;-63
2023/05/23 05:19:37;;;;;;;16.92;5.35;;;11.80;99.90;;;;;;5072000;28;20045;-62
2023/05/23 05:22:03;;;;;;;17.17;5.78;;;11.90;99.90;;;;;;5073432;28;20094;-63
2023/05/23 05:24:29;;;;;;;18.23;5.05;;;11.80;99.90;;;;;;5071219;28;20098;-61
2023/05/23 05:26:55;;;;;;;14.07;5.00;;;11.80;99.90;;;;;;5071083;28;20044;-63
2023/05/23 05:29:21;;;;;;;15.88;5.05;;;11.80;99.90;;;;;;5072287;28;20116;-62
2023/05/23 05:31:47;;;;;;;11.07;4.78;;;11.70;99.90;;;;;;5054917;28;20458;-64
2023/05/23 05:34:13;;;;;;;14.43;5.18;;;11.70;99.90;;;;;;5053313;28;20097;-63
2023/05/23 05:36:45;;;;;;;17.55;5.85;;;11.70;99.90;;;;;;5071010;28;20047;-66
2023/05/23 05:39:12;;;;;;;;;;;11.70;99.90;;;;;;5104684;28;20047;-62
2023/05/23 05:41:38;;;;;;;15.68;4.90;;;11.60;99.90;;;;;;5071907;28;19923;-61
2023/05/23 05:44:04;;;;;;;12.85;5.18;;;11.60;99.90;;;;;;5073010;28;20044;-63
2023/05/23 05:46:29;;;;;;;15.68;4.70;;;11.60;99.90;;;;;;5071937;28;20048;-66
2023/05/23 05:48:55;;;;;;;13.63;5.35;;;11.60;99.90;;;;;;5055270;28;20059;-61
2023/05/23 05:51:20;;;;;;;14.00;5.00;;;11.60;99.90;;;;;;5071661;28;20094;-61
2023/05/23 05:53:48;;;;;;;14.82;5.18;;;11.50;99.90;;;;;;5072992;28;20036;-66
2023/05/23 05:56:14;;;;;;;14.77;5.00;;;11.50;99.90;;;;;;5071595;28;20127;-65
2023/05/23 05:58:39;;;;;;;13.88;4.88;;;11.50;99.90;;;;;;5055214;28;20563;-66
2023/05/23 06:01:05;;;;;;;13.15;4.93;;;11.40;99.90;;;;;;5073950;28;20174;-62
2023/05/23 06:03:32;;;;;;;11.88;4.70;;;11.40;99.90;;;;;;5072796;28;20475;-61
2023/05/23 06:05:58;;;;;;;15.80;5.68;;;11.40;99.90;;;;;;5074132;28;20044;-62
2023/05/23 06:08:24;;;;;;;15.80;5.70;;;11.40;99.90;;;;;;5071691;28;20059;-65
2023/05/23 06:10:50;;;;;;;14.90;4.97;;;11.30;99.90;;;;;;5072322;28;20059;-61
2023/05/23 06:13:16;;;;;;;11.82;4.80;;;11.30;99.90;;;;;;5071122;28;20042;-62
2023/05/23 06:15:42;;;;;;;18.45;5.45;;;11.30;99.90;;;;;;5070785;28;20119;-63
2023/05/23 06:18:08;;;;;;;14.65;5.70;;;11.30;99.90;;;;;;5071400;28;20052;-61
2023/05/23 06:20:33;;;;;;;16.33;5.15;;;11.30;99.90;;;;;;5071178;28;20043;-63
2023/05/23 06:23:00;;;;;;;10.80;4.95;;;11.30;99.90;;;;;;5071202;28;20039;-65
2023/05/23 06:25:26;;;;;;;13.48;5.22;;;11.20;99.90;;;;;;5071016;28;20040;-62
2023/05/23 06:27:51;;;;;;;12.02;4.10;;;11.20;99.90;;;;;;5070676;28;20452;-63
2023/05/23 06:30:17;;;;;;;12.30;4.68;;;11.20;99.90;;;;;;5070954;28;20025;-62
2023/05/23 06:32:43;;;;;;;13.05;4.47;;;11.30;99.90;;;;;;5070679;28;20487;-63
2023/05/23 06:35:09;;;;;;;15.52;4.20;;;11.30;99.90;;;;;;5071121;28;20394;-62
2023/05/23 06:37:34;;;;;;;11.75;4.40;;;11.30;99.90;;;;;;5070622;28;20059;-62
2023/05/23 06:40:00;;;;;;;12.45;4.82;;;11.40;99.90;;;;;;5071878;28;20044;-64
2023/05/23 06:42:26;;;;;;;10.07;4.35;;;11.40;99.90;;;;;;5070345;28;20029;-60
2023/05/23 06:44:52;;;;;;;10.80;4.30;;;11.50;99.90;;;;;;5071773;28;20085;-63
2023/05/23 06:47:17;;;;;;;11.73;3.97;;;11.50;99.90;;;;;;5070538;28;20048;-63
2023/05/23 06:49:44;;;;;;;11.73;4.20;;;11.50;99.90;;;;;;5070599;28;20120;-65
2023/05/23 06:52:10;;;;;;;13.77;4.20;;;11.50;99.90;;;;;;5070260;28;20075;-64
2023/05/23 06:54:35;;;;;;;14.48;4.20;;;11.60;99.90;;;;;;5070607;28;20499;-62
2023/05/23 06:57:01;;;;;;;14.02;4.32;;;11.60;99.90;;;;;;5071327;28;20047;-63
2023/05/23 06:59:27;;;;;;;15.23;3.90;;;11.60;99.90;;;;;;5069950;28;20454;-62
2023/05/23 07:01:52;;;;;;;12.93;3.22;;;11.50;99.90;;;;;;5070446;28;20079;-62
2023/05/23 07:04:18;;;;;;;13.15;3.10;;;11.60;99.90;;;;;;5070442;28;20118;-63
2023/05/23 07:06:44;;;;;;;9.40;3.20;;;11.70;99.90;;;;;;5071684;28;20123;-63
2023/05/23 07:09:10;;;;;;;12.55;3.67;;;12.00;99.90;;;;;;5070000;28;20041;-64
2023/05/23 07:11:38;;;;;;;10.35;2.80;;;12.30;99.90;;;;;;5053438;28;20083;-63
2023/05/23 07:14:04;;;;;;;13.20;3.13;;;12.60;99.90;;;;;;5071269;28;20037;-64
2023/05/23 07:16:30;;;;;;;11.60;3.50;;;12.70;99.90;;;;;;5070162;28;20499;-62
2023/05/23 07:18:56;;;;;;;13.93;3.35;;;12.60;99.90;;;;;;5069972;28;20068;-63
2023/05/23 07:21:21;;;;;;;14.00;3.00;;;12.50;99.90;;;;;;5071089;28;20475;-65
2023/05/23 07:23:47;;;;;;;10.40;3.33;;;12.40;99.90;;;;;;5071172;28;20029;-62
2023/05/23 07:26:12;;;;;;;14.82;3.53;;;12.30;99.90;;;;;;5070783;28;20044;-62
2023/05/23 07:28:38;;;;;;;15.35;3.10;;;12.10;99.90;;;;;;5070218;28;20115;-66
2023/05/23 07:31:04;;;;;;;12.85;3.53;;;12.10;99.90;;;;;;5071268;28;20043;-64
2023/05/23 07:33:30;;;;;;;17.27;3.33;;;12.10;99.90;;;;;;5069455;28;20049;-64
2023/05/23 07:35:55;;;;;;;13.43;3.42;;;12.10;99.90;;;;;;5069560;28;20041;-65
2023/05/23 07:38:21;;;;;;;14.90;3.28;;;12.20;99.90;;;;;;5068489;28;20094;-64
2023/05/23 07:40:47;;;;;;;14.57;2.90;;;12.20;99.90;;;;;;5069518;28;20394;-62
2023/05/23 07:43:12;;;;;;;13.65;3.25;;;12.20;99.90;;;;;;5069613;28;20045;-64
2023/05/23 07:45:38;;;;;;;15.65;2.97;;;12.20;99.90;;;;;;5071036;28;20045;-61
2023/05/23 07:48:03;;;;;;;12.93;3.33;;;12.30;99.90;;;;;;5070731;28;20040;-64
2023/05/23 07:50:30;;;;;;;14.25;3.75;;;12.20;99.90;;;;;;5070522;28;20041;-64
2023/05/23 07:52:55;;;;;;;15.30;3.83;;;12.20;99.90;;;;;;5070668;28;20120;-66
2023/05/23 07:55:21;;;;;;;15.23;3.20;;;12.10;99.90;;;;;;5070229;28;20119;-62
2023/05/23 07:57:47;;;;;;;14.65;3.58;;;12.10;99.90;;;;;;5070549;28;20044;-63
2023/05/23 08:00:13;;;;;;;18.88;3.25;;;12.00;99.90;;;;;;5070447;28;20044;-63
2023/05/23 08:02:39;;;;;;;18.58;3.58;;;11.90;99.90;;;;;;5052944;28;20094;-62
2023/05/23 08:05:05;;;;;;;15.77;3.97;;;12.00;99.90;;;;;;5070333;28;20072;-62
2023/05/23 08:07:31;;;;;;;15.35;3.05;;;12.00;99.90;;;;;;5070206;28;20083;-63
2023/05/23 08:09:57;;;;;;;17.95;3.45;;;12.10;99.90;;;;;;5070396;28;20083;-64
2023/05/23 08:12:22;;;;;;;11.15;2.88;;;12.10;99.90;;;;;;5052578;28;20087;-64
2023/05/23 08:14:48;;;;;;;13.13;2.97;;;12.20;99.90;;;;;;5068735;28;20056;-61
2023/05/23 08:17:14;;;;;;;18.52;3.45;;;12.10;99.90;;;;;;5068793;28;20075;-62
2023/05/23 08:19:40;;;;;;;18.50;3.13;;;12.30;99.90;;;;;;5068823;28;20036;-64
2023/05/23 08:22:06;;;;;;;14.75;2.85;;;12.40;99.90;;;;;;5070146;28;20075;-63
2023/05/23 08:24:33;;;;;;;11.23;2.28;;;12.50;99.90;;;;;;5069048;28;20289;-63
2023/05/23 08:26:59;;;;;;;20.60;4.00;;;12.60;99.90;;;;;;5069818;28;20106;-62
2023/05/23 08:29:24;;;;;;;13.07;2.58;;;12.80;99.90;;;;;;5070149;28;20119;-62
2023/05/23 08:31:50;;;;;;;14.70;3.40;;;12.90;99.90;;;;;;5068432;28;20561;-64
2023/05/23 08:34:16;;;;;;;16.48;3.17;;;12.90;99.90;;;;;;5068447;28;20036;-64
2023/05/23 08:36:41;;;;;;;14.80;3.03;;;13.00;99.90;;;;;;5068424;28;20052;-64
2023/05/23 08:39:07;;;;;;;14.68;3.05;;;12.90;99.90;;;;;;5068496;28;20051;-60
2023/05/23 08:41:34;;;;;;;13.73;2.72;;;12.90;99.90;;;;;;5068471;28;20043;-64
2023/05/23 08:43:59;;;;;;;16.80;2.95;;;12.80;99.90;;;;;;5068525;28;20514;-62
2023/05/23 08:46:26;;;;;;;15.07;2.92;;;12.80;99.90;;;;;;5051801;28;20044;-63
2023/05/23 08:48:53;;;;;;;17.17;3.40;;;13.00;99.90;;;;;;5069668;28;20036;-64
2023/05/23 08:51:25;;;;;;;13.05;2.78;;;13.10;99.90;;;;;;5067560;28;20044;-65
2023/05/23 08:53:55;;;;;;;13.85;2.60;;;13.30;99.90;;;;;;5068119;28;20040;-63
2023/05/23 08:56:23;;;;;;;17.02;3.35;;;13.60;99.90;;;;;;5068362;28;20399;-63
2023/05/23 08:58:51;;;;;;;11.98;3.00;;;14.10;99.90;;;;;;5068404;28;20044;-62
2023/05/23 09:01:19;;;;;;;12.93;2.80;;;14.50;99.90;;;;;;5051564;28;20036;-61
2023/05/23 09:03:45;;;;;;;16.02;3.00;;;14.70;99.90;;;;;;5068486;28;20054;-62
2023/05/23 09:06:11;;;;;;;18.67;3.85;;;14.80;99.90;;;;;;5068017;28;20127;-60
2023/05/23 09:08:37;;;;;;;15.35;3.47;;;14.70;99.90;;;;;;5068141;28;20109;-63
2023/05/23 09:11:05;;;;;;;15.13;3.20;;;14.60;99.90;;;;;;5068175;28;20445;-64
2023/05/23 09:13:32;;;;;;;11.88;3.08;;;14.70;99.90;;;;;;5069405;28;20123;-63
2023/05/23 09:16:08;;;;;;;14.45;3.53;;;14.90;99.90;;;;;;5068128;28;20149;-64
2023/05/23 09:18:36;;;;;;;17.40;3.42;;;15.30;99.90;;;;;;5069539;28;20037;-64
2023/05/23 09:21:02;;;;;;;11.98;3.25;;;15.50;99.90;;;;;;5069126;28;20063;-63
2023/05/23 09:23:34;;;;;;;13.20;3.55;;;15.60;99.90;;;;;;5069457;28;20052;-61
2023/05/23 09:26:04;;;;;;;13.05;3.55;;;15.40;99.90;;;;;;5068268;28;20076;-64
2023/05/23 09:28:34;;;;;;;9.32;2.88;;;14.90;99.90;;;;;;5067996;28;20040;-64
2023/05/23 09:31:02;;;;;;;17.23;3.80;;;14.70;99.90;;;;;;5067931;28;20136;-64
2023/05/23 09:33:42;;;;;;;14.48;3.55;;;14.60;99.90;;;;;;5068063;28;20055;-63
2023/05/23 09:36:08;;;;;;;10.95;2.70;;;14.90;99.90;;;;;;5067984;28;20553;-62
2023/05/23 09:38:38;;;;;;;12.50;3.05;;;15.10;99.90;;;;;;5067902;28;20040;-64
2023/05/23 09:41:04;;;;;;;10.52;2.70;;;15.20;99.90;;;;;;5067899;28;20107;-64
2023/05/23 09:43:30;;;;;;;16.17;3.90;;;15.00;99.90;;;;;;5067955;28;20538;-63
2023/05/23 09:46:09;;;;;;;10.95;2.88;;;14.80;99.90;;;;;;5068939;28;20063;-64
2023/05/23 09:48:36;;;;;;;12.90;2.90;;;14.80;99.90;;;;;;5069098;28;20056;-62
2023/05/23 09:51:09;;;;;;;13.35;2.85;;;15.10;99.90;;;;;;5069241;28;20028;-63
2023/05/23 09:53:35;;;;;;;15.23;3.85;;;15.30;99.90;;;;;;5068931;28;20511;-62
2023/05/23 09:56:04;;;;;;;16.23;3.45;;;15.50;99.90;;;;;;5067813;28;20079;-63
2023/05/23 09:58:32;;;;;;;13.38;3.40;;;15.50;99.90;;;;;;5068742;28;20498;-64
2023/05/23 10:01:02;;;;;;;16.75;3.10;;;15.30;99.90;;;;;;5069400;28;20039;-63
2023/05/23 10:03:43;;;;;;;13.13;3.30;;;15.40;99.90;;;;;;5072778;28;20067;-63
2023/05/23 10:06:25;;;;;;;10.43;2.78;;;15.70;99.90;;;;;;5072839;28;20040;-65
2023/05/23 10:09:16;;;;;;;11.82;2.40;;;16.10;99.90;;;;;;5071314;28;20055;-62
2023/05/23 10:12:19;;;;;;;15.45;2.80;;;16.40;99.90;;;;;;5071394;28;20036;-62
2023/05/23 10:14:53;;;;;;;9.57;2.42;;;16.20;99.90;;;;;;5071580;28;20068;-65
2023/05/23 10:17:43;;;;;;;11.80;2.60;;;16.30;99.90;;;;;;5072598;28;20052;-62
2023/05/23 10:20:15;;;;;;;9.50;2.85;;;16.20;99.90;;;;;;5064119;28;20579;-62
2023/05/23 10:22:42;;;;;;;14.07;2.63;;;15.90;99.90;;;;;;5072335;28;20036;-64
2023/05/23 10:25:12;;;;;;;10.38;2.33;;;15.90;99.90;;;;;;5071112;28;20033;-60
2023/05/23 10:27:38;;;;;;;9.63;2.38;;;16.00;99.90;;;;;;5072239;28;20364;-62
2023/05/23 10:30:08;;;;;;;13.10;2.95;;;16.10;99.90;;;;;;5071315;28;20044;-64
2023/05/23 10:32:35;;;;;;;10.18;2.33;;;16.10;99.90;;;;;;5070913;28;20051;-62
2023/05/23 10:35:20;;;;;;;10.93;2.78;;;15.90;99.90;;;;;;5072021;28;20365;-62
2023/05/23 10:37:58;;;;;;;16.55;3.20;;;15.70;99.90;;;;;;5070335;28;20056;-63
2023/05/23 10:40:54;;;;;;;12.98;2.33;;;15.60;99.90;;;;;;5070698;28;20044;-62
2023/05/23 10:43:28;;;;;;;13.55;2.50;;;15.70;99.90;;;;;;5071023;28;20040;-64
2023/05/23 10:45:54;;;;;;;13.32;3.10;;;15.70;99.90;;;;;;5071211;28;20047;-63
2023/05/23 10:48:22;;;;;;;11.02;3.00;;;15.80;99.90;;;;;;5072129;28;20040;-64
2023/05/23 10:51:10;;;;;;;9.63;2.42;;;16.10;99.90;;;;;;5070772;28;20488;-65
2023/05/23 10:53:44;;;;;;;9.65;2.55;;;16.30;99.90;;;;;;5070539;28;20597;-63
2023/05/23 10:56:20;;;;;;;9.80;2.25;;;16.20;99.70;;;;;;5071470;28;20045;-65
2023/05/23 10:58:50;;;;;;;9.77;2.00;;;16.30;99.90;;;;;;5070733;28;20495;-63
2023/05/23 11:01:18;;;;;;;9.30;2.17;;;16.40;99.60;;;;;;5071671;28;20036;-64
2023/05/23 11:03:47;;;;;;;12.20;2.47;;;16.60;99.50;;;;;;5070495;28;20040;-63
2023/05/23 11:06:32;;;;;;;11.32;2.53;;;16.40;98.70;;;;;;5070204;28;21681;-65
2023/05/23 11:09:24;;;;;;;10.93;2.65;;;16.00;99.30;;;;;;5070102;28;20045;-62
2023/05/23 11:11:52;;;;;;;11.93;2.97;;;15.70;99.00;;;;;;5069128;28;20048;-61
2023/05/23 11:14:19;;;;;;;9.60;2.50;;;15.50;99.70;;;;;;5053426;28;20048;-63
2023/05/23 11:16:47;;;;;;;11.38;2.58;;;15.30;99.90;;;;;;5072402;28;20051;-62
2023/05/23 11:19:18;;;;;;;14.00;2.38;;;15.10;99.90;;;;;;5054240;28;20051;-64
2023/05/23 11:22:04;;;;;;;13.83;2.43;;;15.10;99.90;;;;;;5072018;28;20035;-63
2023/05/23 11:24:55;;;;;;;13.05;2.80;;;15.10;99.90;;;;;;5070960;28;20041;-63
2023/05/23 11:27:28;;;;;;;10.82;3.35;;;15.10;99.90;;;;;;5072000;28;20433;-66
2023/05/23 11:29:58;;;;;;;10.48;2.15;;;15.10;99.90;;;;;;5070839;28;20109;-63
2023/05/23 11:32:26;;;;;;;11.88;2.53;;;15.20;99.90;;;;;;5071883;28;20047;-63
2023/05/23 11:34:51;;;;;;;13.00;2.42;;;15.40;99.90;;;;;;5072015;28;20064;-64
2023/05/23 11:37:19;;;;;;;12.90;2.30;;;15.30;99.90;;;;;;5071467;28;20079;-64
2023/05/23 11:39:45;;;;;;;9.57;2.83;;;15.10;99.90;;;;;;5070644;28;20123;-61
2023/05/23 11:42:10;;;;;;;8.20;2.28;;;15.30;99.90;;;;;;5070243;28;20124;-63
2023/05/23 11:44:36;;;;;;;14.20;3.05;;;15.60;99.90;;;;;;5071818;28;20072;-62
2023/05/23 11:47:03;;;;;;;9.50;2.40;;;15.60;99.90;;;;;;5070063;28;20047;-64
2023/05/23 11:49:37;;;;;;;9.40;2.92;;;15.60;99.90;;;;;;5070598;28;20040;-62
2023/05/23 11:52:05;;;;;;;11.55;2.35;;;15.80;99.90;;;;;;5070110;28;20040;-63
2023/05/23 11:54:31;;;;;;;12.35;2.72;;;15.80;99.90;;;;;;5071653;28;20037;-64
2023/05/23 11:56:57;;;;;;;13.13;2.40;;;15.50;99.20;;;;;;5070162;28;20033;-62
2023/05/23 11:59:25;;;;;;;7.15;2.30;;;15.70;99.90;;;;;;5071261;28;20032;-63
2023/05/23 12:01:54;;;;;;;10.07;2.80;;;15.90;99.90;;;;;;5070261;28;20040;-64
2023/05/23 12:04:20;;;;;;;11.10;2.70;;;15.80;99.50;;;;;;5070010;28;20025;-65
2023/05/23 12:06:47;;;;;;;10.38;2.17;;;15.60;99.30;;;;;;5070279;28;20445;-63
2023/05/23 12:09:14;;;;;;;13.70;3.03;;;15.40;99.80;;;;;;5069712;28;20083;-64
2023/05/23 12:11:41;;;;;;;8.45;2.05;;;15.30;99.90;;;;;;5071369;28;20452;-62
2023/05/23 12:14:08;;;;;;;8.90;2.88;;;15.20;99.90;;;;;;5069747;28;20469;-63
2023/05/23 12:16:35;;;;;;;10.43;2.10;;;15.10;99.90;;;;;;5069424;28;20048;-62
2023/05/23 12:19:01;;;;;;;11.25;2.70;;;15.20;99.90;;;;;;5071105;28;20051;-62
2023/05/23 12:21:44;;;;;;;14.88;2.47;;;15.30;99.90;;;;;;5070912;28;20395;-61
2023/05/23 12:24:14;;;;;;;;;;;15.30;99.90;;;;;;5071277;28;20044;-64
2023/05/23 12:26:56;;;;;;;10.30;2.47;;;15.20;97.80;;;;;;5070969;28;19920;-65
2023/05/23 12:29:32;;;;;;;14.30;3.50;;;15.30;99.90;;;;;;5070819;28;20491;-63
2023/05/23 12:31:59;;;;;;;14.60;3.00;;;15.10;99.90;;;;;;5069890;28;20436;-61
2023/05/23 12:34:25;;;;;;;10.07;2.25;;;15.10;99.90;;;;;;5069651;28;20044;-62
2023/05/23 12:36:55;;;;;;;11.88;2.72;;;15.00;99.90;;;;;;5070555;28;20059;-65
2023/05/23 12:39:26;;;;;;;10.40;2.35;;;15.00;99.90;;;;;;5070533;28;20048;-62